Time;durP1;ratioP1;P1;durP2;ratioP2;P2;SDS_P1;SDS_P2;PMS_P1;PMS_P2;Temp;Humidity;BMP_temperature;BMP_pressure;BME280_temperature;BME280_humidity;BME280_pressure;Samples;Min_cycle;Max_cycle;Signal;HPM_P1;HPM_P2
2022/04/13 00:01:30;;;;;;;20.45;13.15;;;;;;;21.23;47.06;99026.31;1851429;77;25671;-92
2022/04/13 00:03:56;;;;;;;19.48;12.35;;;;;;;21.25;47.11;99026.75;1851586;77;28094;-88
2022/04/13 00:06:22;;;;;;;20.17;12.85;;;;;;;21.22;47.07;99025.53;1851462;77;25411;-86
2022/04/13 00:08:50;;;;;;;18.50;12.50;;;;;;;21.22;47.12;99026.11;1851390;77;25405;-87
2022/04/13 00:11:17;;;;;;;19.30;13.08;;;;;;;21.21;47.15;99028.09;1851036;77;25738;-87
2022/04/13 00:13:44;;;;;;;18.67;12.25;;;;;;;21.21;47.16;99021.73;1850908;77;25662;-86
2022/04/13 00:16:10;;;;;;;18.95;12.35;;;;;;;21.19;47.19;99019.32;1851451;77;28188;-87
2022/04/13 00:18:36;;;;;;;19.55;13.28;;;;;;;21.18;47.22;99024.08;1851449;77;25470;-93
2022/04/13 00:21:02;;;;;;;18.15;12.60;;;;;;;21.18;47.22;99026.87;1851396;77;25754;-88
2022/04/13 00:23:28;;;;;;;19.67;12.35;;;;;;;21.18;47.25;99028.84;1851735;77;25689;-91
2022/04/13 00:25:54;;;;;;;18.70;12.10;;;;;;;21.17;47.27;99028.05;1851819;77;25435;-92
2022/04/13 00:28:19;;;;;;;21.05;12.88;;;;;;;21.15;47.28;99023.44;1851807;77;27530;-91
2022/04/13 00:30:46;;;;;;;20.40;12.88;;;;;;;21.13;47.30;99026.40;1851724;77;25643;-92
2022/04/13 00:33:11;;;;;;;19.30;12.28;;;;;;;21.12;47.38;99031.73;1851816;77;25695;-92
2022/04/13 00:35:38;;;;;;;19.37;12.60;;;;;;;21.11;47.39;99029.56;1851751;77;25818;-93
2022/04/13 00:38:05;;;;;;;18.30;12.18;;;;;;;21.09;47.43;99027.73;1851430;76;25703;-92
2022/04/13 00:40:31;;;;;;;18.50;12.45;;;;;;;21.09;47.39;99030.52;1871685;76;26872;-90
2022/04/13 00:42:57;;;;;;;18.25;12.43;;;;;;;21.08;47.44;99027.52;1878156;76;25648;-92
2022/04/13 00:45:23;;;;;;;17.10;11.78;;;;;;;21.09;47.46;99031.09;1878237;76;25762;-90
2022/04/13 00:47:50;;;;;;;17.07;11.73;;;;;;;21.09;47.47;99029.70;1878591;76;26558;-86
2022/04/13 00:50:16;;;;;;;18.40;11.88;;;;;;;21.06;47.48;99023.72;1878674;76;25621;-87
2022/04/13 00:52:45;;;;;;;18.52;12.50;;;;;;;21.05;47.53;99029.67;1879144;76;28020;-86
2022/04/13 00:55:14;;;;;;;17.27;11.85;;;;;;;21.08;47.52;99028.11;1878780;76;25915;-86
2022/04/13 00:57:43;;;;;;;20.88;12.75;;;;;;;21.08;47.47;99026.13;1878925;76;25636;-87
2022/04/13 01:00:11;;;;;;;19.32;12.53;;;;;;;21.08;47.49;99025.32;1879061;76;25748;-87
2022/04/13 01:02:38;;;;;;;17.07;12.10;;;;;;;21.04;47.54;99023.28;1878961;76;25728;-87
2022/04/13 01:05:07;;;;;;;16.67;11.28;;;;;;;21.04;47.50;99016.93;1879129;76;28307;-86
2022/04/13 01:07:35;;;;;;;18.17;12.30;;;;;;;21.02;47.56;99019.28;1879032;76;25555;-87
2022/04/13 01:10:06;;;;;;;19.05;12.55;;;;;;;21.03;47.57;99019.48;1879066;76;25612;-86
2022/04/13 01:12:35;;;;;;;18.52;12.10;;;;;;;21.01;47.57;99013.50;1878813;76;26758;-86
2022/04/13 01:15:01;;;;;;;16.27;11.40;;;;;;;20.98;47.64;99012.25;1878550;76;25601;-86
2022/04/13 01:17:28;;;;;;;18.60;11.95;;;;;;;20.99;47.64;99014.45;1879237;76;27475;-89
2022/04/13 01:19:56;;;;;;;16.85;11.65;;;;;;;20.98;47.64;99008.07;1879097;76;25632;-87
2022/04/13 01:22:25;;;;;;;17.32;11.50;;;;;;;20.98;47.62;99003.11;1878652;76;25747;-85
2022/04/13 01:24:52;;;;;;;17.70;11.57;;;;;;;20.97;47.62;99008.45;1879355;76;25759;-86
2022/04/13 01:27:18;;;;;;;16.75;11.95;;;;;;;20.96;47.66;98999.88;1879315;76;25435;-87
2022/04/13 01:29:48;;;;;;;17.48;11.93;;;;;;;20.94;47.68;99008.62;1879189;76;28253;-86
2022/04/13 01:32:15;;;;;;;15.80;11.43;;;;;;;20.95;47.68;99008.03;1878926;76;25933;-87
2022/04/13 01:34:53;;;;;;;17.62;11.68;;;;;;;20.93;47.70;99005.63;1879213;76;25500;-87
2022/04/13 01:37:22;;;;;;;16.48;11.08;;;;;;;20.92;47.74;99008.17;1878649;76;25737;-87
2022/04/13 01:39:48;;;;;;;17.80;11.57;;;;;;;20.90;47.74;99004.38;1878850;76;25633;-86
2022/04/13 01:42:15;;;;;;;15.78;10.93;;;;;;;20.89;47.76;99009.71;1879228;76;27338;-87
2022/04/13 01:44:41;;;;;;;17.23;11.45;;;;;;;20.87;47.78;98997.34;1879118;76;25633;-86
2022/04/13 01:47:08;;;;;;;17.07;11.35;;;;;;;20.88;47.81;98994.77;1879129;76;25623;-87
2022/04/13 01:49:36;;;;;;;17.35;11.30;;;;;;;20.88;47.79;98996.16;1878660;76;25846;-90
2022/04/13 01:52:05;;;;;;;18.10;11.20;;;;;;;20.88;47.79;98996.16;1879038;76;25656;-92
2022/04/13 01:54:31;;;;;;;17.40;11.60;;;;;;;20.87;47.81;99003.70;1877215;76;28374;-91
2022/04/13 01:56:57;;;;;;;15.30;11.03;;;;;;;20.88;47.80;99012.30;1879025;76;25379;-92
2022/04/13 01:59:24;;;;;;;19.07;11.75;;;;;;;20.87;47.77;99006.48;1879288;76;25426;-92
2022/04/13 02:01:50;;;;;;;14.98;11.00;;;;;;;20.88;47.81;99008.69;1879209;76;25740;-93
2022/04/13 02:04:24;;;;;;;15.08;10.72;;;;;;;20.87;47.80;99010.66;1879207;76;25633;-91
2022/04/13 02:06:52;;;;;;;16.87;11.10;;;;;;;20.87;47.83;99011.27;1878830;76;27343;-92
2022/04/13 02:09:19;;;;;;;16.17;10.95;;;;;;;20.87;47.81;99015.45;1879006;76;25830;-92
2022/04/13 02:11:46;;;;;;;14.87;10.13;;;;;;;20.86;47.82;99009.65;1879220;76;25383;-86
2022/04/13 02:14:13;;;;;;;15.65;11.00;;;;;;;20.81;47.87;99007.41;1879040;76;25676;-85
2022/04/13 02:16:40;;;;;;;17.30;11.12;;;;;;;20.83;47.90;99019.56;1879045;76;25534;-89
2022/04/13 02:19:07;;;;;;;17.62;11.15;;;;;;;20.81;47.91;99017.16;1879214;76;28154;-87
2022/04/13 02:21:35;;;;;;;18.57;11.03;;;;;;;20.81;47.88;99028.30;1878529;76;25601;-86
2022/04/13 02:24:01;;;;;;;16.12;11.10;;;;;;;20.79;47.90;99027.08;1878341;76;25431;-85
2022/04/13 02:26:27;;;;;;;15.03;10.72;;;;;;;20.77;47.95;99030.23;1879287;76;26640;-87
2022/04/13 02:28:53;;;;;;;15.55;10.60;;;;;;;20.76;47.96;99034.20;1879361;76;25588;-87
2022/04/13 02:31:20;;;;;;;18.70;11.30;;;;;;;20.76;47.94;99030.02;1879197;76;27518;-86
2022/04/13 02:33:47;;;;;;;16.90;11.30;;;;;;;20.76;47.95;99028.63;1878865;76;25368;-90
2022/04/13 02:36:14;;;;;;;16.75;10.55;;;;;;;20.76;47.95;99030.02;1878800;76;25682;-86
2022/04/13 02:38:40;;;;;;;15.08;10.45;;;;;;;20.77;47.95;99034.98;1879136;76;26529;-86
2022/04/13 02:41:06;;;;;;;16.67;11.45;;;;;;;20.77;47.97;99030.81;1879177;76;25707;-86
2022/04/13 02:43:32;;;;;;;14.75;10.38;;;;;;;20.75;47.98;99029.00;1879174;76;27306;-86
2022/04/13 02:45:58;;;;;;;15.40;10.90;;;;;;;20.73;48.00;99029.38;1878994;76;25675;-86
2022/04/13 02:48:25;;;;;;;16.90;10.98;;;;;;;20.74;48.00;99034.34;1879152;76;25633;-87
2022/04/13 02:50:52;;;;;;;14.65;9.70;;;;;;;20.72;48.02;99031.14;1879059;76;25933;-85
2022/04/13 02:53:19;;;;;;;15.38;10.68;;;;;;;20.72;48.03;99031.14;1878778;76;25637;-86
2022/04/13 02:55:45;;;;;;;15.18;10.20;;;;;;;20.72;48.05;99029.75;1879049;76;28168;-87
2022/04/13 02:58:11;;;;;;;16.15;10.78;;;;;;;20.70;48.06;99028.73;1879048;76;25412;-86
2022/04/13 03:00:37;;;;;;;14.40;10.13;;;;;;;20.68;48.09;99029.69;1878952;76;25646;-85
2022/04/13 03:03:04;;;;;;;13.90;10.10;;;;;;;20.68;48.11;99024.11;1878704;76;25838;-85
2022/04/13 03:05:30;;;;;;;15.13;10.32;;;;;;;20.68;48.08;99027.72;1878839;76;25631;-86
2022/04/13 03:07:56;;;;;;;14.98;10.03;;;;;;;20.66;48.10;99031.45;1879066;76;28413;-92
2022/04/13 03:10:22;;;;;;;13.72;9.60;;;;;;;20.64;48.14;99037.19;1878941;76;25697;-92
2022/04/13 03:12:48;;;;;;;14.80;10.13;;;;;;;20.63;48.15;99028.59;1879073;76;25557;-91
2022/04/13 03:15:14;;;;;;;16.00;10.43;;;;;;;20.63;48.16;99029.98;1878953;76;26497;-90
2022/04/13 03:17:41;;;;;;;14.95;10.28;;;;;;;20.63;48.13;99026.63;1878747;76;25352;-92
2022/04/13 03:20:10;;;;;;;15.88;10.85;;;;;;;20.62;48.19;99033.38;1879035;76;27583;-93
2022/04/13 03:22:36;;;;;;;14.80;10.05;;;;;;;20.61;48.21;99029.58;1878937;75;25826;-91
2022/04/13 03:25:04;;;;;;;14.47;10.15;;;;;;;20.59;48.23;99028.55;1879079;76;25671;-92
2022/04/13 03:27:30;;;;;;;13.13;9.75;;;;;;;20.59;48.26;99029.14;1878917;76;25755;-91
2022/04/13 03:29:56;;;;;;;15.95;10.50;;;;;;;20.59;48.24;99035.52;1879144;76;25378;-89
2022/04/13 03:32:22;;;;;;;14.05;10.15;;;;;;;20.60;48.24;99029.34;1879056;76;27420;-86
2022/04/13 03:34:48;;;;;;;15.65;10.38;;;;;;;20.58;48.26;99028.33;1879031;76;25387;-85
2022/04/13 03:37:14;;;;;;;14.15;9.88;;;;;;;20.58;48.27;99033.11;1879029;76;25355;-87
2022/04/13 03:39:40;;;;;;;13.40;9.55;;;;;;;20.58;48.27;99031.72;1878933;76;25693;-88
2022/04/13 03:42:07;;;;;;;14.55;9.98;;;;;;;20.56;48.28;99030.09;1878968;76;25589;-87
2022/04/13 03:44:33;;;;;;;13.93;10.03;;;;;;;20.55;48.32;99028.48;1879142;76;27591;-85
2022/04/13 03:46:59;;;;;;;14.10;10.35;;;;;;;20.56;48.31;99032.87;1878905;76;25842;-86
2022/04/13 03:49:25;;;;;;;13.90;10.00;;;;;;;20.58;48.30;99042.24;1879002;76;25625;-86
2022/04/13 03:51:51;;;;;;;15.28;10.03;;;;;;;20.56;48.32;99040.44;1879078;76;26668;-88
2022/04/13 03:54:17;;;;;;;14.75;9.98;;;;;;;20.55;48.34;99044.38;1879062;76;25608;-89
2022/04/13 03:56:43;;;;;;;13.80;9.93;;;;;;;20.54;48.34;99047.77;1879066;76;28209;-91
2022/04/13 03:59:09;;;;;;;15.53;10.20;;;;;;;20.54;48.34;99048.34;1878918;76;25380;-91
2022/04/13 04:01:36;;;;;;;14.45;9.98;;;;;;;20.54;48.35;99051.13;1879092;76;25427;-88
2022/04/13 04:04:03;;;;;;;15.40;9.58;;;;;;;20.52;48.37;99055.67;1878752;76;26422;-89
2022/04/13 04:06:29;;;;;;;15.20;10.40;;;;;;;20.54;48.34;99058.09;1877379;76;25653;-90
2022/04/13 04:08:55;;;;;;;13.95;9.58;;;;;;;20.53;48.33;99060.67;1870013;76;28186;-88
2022/04/13 04:11:21;;;;;;;14.20;9.80;;;;;;;20.53;48.35;99056.49;1863163;76;25913;-90
2022/04/13 04:13:47;;;;;;;14.28;10.03;;;;;;;20.51;48.38;99059.65;1878931;76;25529;-88
2022/04/13 04:16:12;;;;;;;14.63;9.83;;;;;;;20.50;48.39;99062.22;1879051;76;26526;-90
2022/04/13 04:18:38;;;;;;;13.53;9.23;;;;;;;20.51;48.40;99068.00;1879160;76;25629;-88
2022/04/13 04:21:04;;;;;;;14.55;9.98;;;;;;;20.52;48.39;99067.42;1871433;76;27443;-91
2022/04/13 04:23:30;;;;;;;14.20;9.85;;;;;;;20.48;48.41;99072.91;1851182;77;25767;-89
2022/04/13 04:25:56;;;;;;;13.20;9.65;;;;;;;20.49;48.44;99066.16;1851637;77;25607;-90
2022/04/13 04:28:22;;;;;;;13.00;9.60;;;;;;;20.48;48.45;99065.95;1851790;77;26535;-86
2022/04/13 04:30:48;;;;;;;14.28;10.08;;;;;;;20.49;48.48;99070.95;1851770;77;25620;-91
2022/04/13 04:33:15;;;;;;;14.05;9.68;;;;;;;20.48;48.48;99069.31;1851779;77;28166;-92
2022/04/13 04:35:47;;;;;;;13.30;9.63;;;;;;;20.47;48.49;99062.16;1851391;76;25876;-92
2022/04/13 04:38:13;;;;;;;14.68;9.68;;;;;;;20.44;48.54;99068.67;1857330;76;25682;-91
2022/04/13 04:40:40;;;;;;;14.28;9.98;;;;;;;20.44;48.56;99072.84;1855380;77;26549;-89
2022/04/13 04:43:05;;;;;;;12.98;9.38;;;;;;;20.44;48.59;99070.67;1857391;77;25720;-92
2022/04/13 04:45:31;;;;;;;13.95;9.88;;;;;;;20.43;48.59;99071.82;1856319;77;27366;-92
2022/04/13 04:48:04;;;;;;;14.78;9.90;;;;;;;20.42;48.63;99076.60;1856485;77;25614;-93
2022/04/13 04:50:25;;;;;;;13.83;9.18;;;;;;;20.44;48.62;99078.41;1855328;77;25728;-91
2022/04/13 04:52:51;;;;;;;12.68;9.05;;;;;;;20.44;48.63;99074.84;1856820;77;25787;-91
2022/04/13 04:55:19;;;;;;;13.10;9.30;;;;;;;20.44;48.64;99075.62;1857329;77;25615;-86
2022/04/13 04:57:46;;;;;;;13.55;9.10;;;;;;;20.46;48.61;99087.00;1857093;77;27459;-85
2022/04/13 05:00:17;;;;;;;13.43;9.50;;;;;;;20.43;48.66;99092.12;1856713;77;25752;-86
2022/04/13 05:02:48;;;;;;;13.05;9.55;;;;;;;20.43;48.69;99092.12;1852552;77;26034;-86
2022/04/13 05:05:16;;;;;;;14.15;9.43;;;;;;;20.42;48.66;99096.09;1856399;77;25811;-86
2022/04/13 05:07:43;;;;;;;12.45;9.18;;;;;;;20.42;48.68;99096.09;1856704;77;25601;-90
2022/04/13 05:10:10;;;;;;;15.08;9.83;;;;;;;20.41;48.73;99093.06;1856483;77;27928;-86
2022/04/13 05:12:49;;;;;;;13.20;9.55;;;;;;;20.40;48.71;99092.86;1856846;77;25652;-87
2022/04/13 05:15:16;;;;;;;13.10;9.28;;;;;;;20.42;48.71;99096.09;1856910;77;25661;-85
2022/04/13 05:17:43;;;;;;;11.55;8.33;;;;;;;20.40;48.74;99094.83;1855736;77;25740;-90
2022/04/13 05:20:10;;;;;;;12.82;8.60;;;;;;;20.40;48.77;99092.05;1857564;77;25767;-89
2022/04/13 05:22:37;;;;;;;13.03;9.13;;;;;;;20.39;48.78;99091.26;1855926;77;27485;-90
2022/04/13 05:25:07;;;;;;;14.38;9.40;;;;;;;20.40;48.80;99085.08;1853454;77;25745;-91
2022/04/13 05:27:33;;;;;;;12.70;9.28;;;;;;;20.38;48.81;99085.45;1853763;77;29995;-88
2022/04/13 05:29:59;;;;;;;13.18;9.35;;;;;;;20.39;48.83;99083.48;1848924;77;25718;-88
2022/04/13 05:32:26;;;;;;;14.07;9.35;;;;;;;20.37;48.83;99084.44;1852376;77;25681;-87
2022/04/13 05:35:01;;;;;;;13.25;9.08;;;;;;;20.39;48.84;99091.84;1853013;77;27431;-86
2022/04/13 05:37:30;;;;;;;12.73;9.03;;;;;;;20.38;48.89;99098.59;1853569;77;25736;-86
2022/04/13 05:39:56;;;;;;;13.15;9.48;;;;;;;20.39;48.88;99096.01;1853855;77;25421;-90
2022/04/13 05:42:24;;;;;;;14.10;9.20;;;;;;;20.38;48.88;99097.98;1853429;77;26499;-90
2022/04/13 05:44:52;;;;;;;12.07;8.90;;;;;;;20.36;48.92;99100.92;1853502;77;25681;-86
2022/04/13 05:47:18;;;;;;;12.70;9.43;;;;;;;20.38;48.92;99104.16;1852832;77;27931;-87
2022/04/13 05:49:45;;;;;;;13.93;9.48;;;;;;;20.38;48.92;99110.50;1853684;77;25594;-85
2022/04/13 05:52:11;;;;;;;13.00;9.33;;;;;;;20.39;48.95;99125.23;1853181;77;25677;-85
2022/04/13 05:54:37;;;;;;;13.00;9.03;;;;;;;20.38;48.93;99127.81;1852522;77;26656;-86
2022/04/13 05:57:04;;;;;;;13.70;8.90;;;;;;;20.37;49.00;99128.39;1850069;76;25558;-86
2022/04/13 05:59:30;;;;;;;12.23;9.18;;;;;;;20.37;48.97;99131.17;1856096;76;27182;-86
2022/04/13 06:01:56;;;;;;;12.25;8.68;;;;;;;20.37;49.00;99136.73;1851684;77;25709;-90
2022/04/13 06:04:23;;;;;;;12.73;9.30;;;;;;;20.37;49.04;99127.57;1851755;77;25627;-90
2022/04/13 06:06:50;;;;;;;12.85;8.63;;;;;;;20.38;49.04;99139.73;1851692;77;25703;-89
2022/04/13 06:09:16;;;;;;;12.45;9.20;;;;;;;20.38;49.01;99138.94;1851562;77;25755;-92
2022/04/13 06:11:43;;;;;;;12.43;8.58;;;;;;;20.38;49.03;99141.73;1851464;77;27506;-91
2022/04/13 06:14:09;;;;;;;13.60;8.85;;;;;;;20.33;48.72;99143.41;1851532;77;25602;-85
2022/04/13 06:16:35;;;;;;;13.55;8.98;;;;;;;20.30;48.77;99147.13;1851547;77;25699;-87
2022/04/13 06:19:01;;;;;;;13.43;9.03;;;;;;;20.31;48.61;99150.16;1851436;77;25710;-87
2022/04/13 06:21:28;;;;;;;11.18;8.20;;;;;;;20.34;48.59;99143.61;1851718;77;25672;-87
2022/04/13 06:23:54;;;;;;;12.82;8.80;;;;;;;20.39;48.56;99157.25;1851191;77;28463;-85
2022/04/13 06:26:21;;;;;;;12.73;8.65;;;;;;;20.40;48.59;99151.89;1851007;77;25670;-85
2022/04/13 06:28:47;;;;;;;13.68;9.10;;;;;;;20.42;48.73;99155.12;1851567;77;25631;-86
2022/04/13 06:31:13;;;;;;;11.28;8.20;;;;;;;20.45;48.77;99155.77;1851329;77;25675;-85
2022/04/13 06:33:39;;;;;;;13.32;9.03;;;;;;;20.47;48.71;99157.61;1851651;77;25420;-87
2022/04/13 06:36:08;;;;;;;13.15;8.90;;;;;;;20.49;48.77;99158.03;1851404;77;27496;-87
2022/04/13 06:38:40;;;;;;;14.23;8.65;;;;;;;20.54;48.86;99161.09;1850967;77;25591;-85
2022/04/13 06:41:03;;;;;;;14.55;9.05;;;;;;;20.58;48.85;99158.39;1850310;77;25658;-86
2022/04/13 06:43:30;;;;;;;12.58;8.80;;;;;;;20.63;48.86;99149.72;1851620;77;25972;-86
2022/04/13 06:45:56;;;;;;;13.10;8.80;;;;;;;20.66;48.94;99151.18;1851722;77;25399;-86
2022/04/13 06:48:22;;;;;;;11.38;8.68;;;;;;;20.72;49.03;99149.50;1851764;77;27349;-86
2022/04/13 06:50:49;;;;;;;14.13;8.78;;;;;;;20.77;49.09;99151.38;1851447;77;25403;-88
2022/04/13 06:53:17;;;;;;;13.08;8.78;;;;;;;20.82;49.22;99150.27;1851675;77;25715;-90
2022/04/13 06:55:44;;;;;;;12.00;8.98;;;;;;;20.87;49.23;99155.51;1851108;77;25541;-86
2022/04/13 06:58:10;;;;;;;13.90;8.75;;;;;;;20.93;49.34;99163.02;1851407;77;25563;-86
2022/04/13 07:00:36;;;;;;;12.68;9.40;;;;;;;20.98;49.33;99172.44;1851540;77;27341;-88
2022/04/13 07:03:03;;;;;;;11.68;8.48;;;;;;;21.04;49.41;99174.34;1848023;77;25687;-86
2022/04/13 07:05:31;;;;;;;12.65;8.53;;;;;;;21.09;49.43;99177.37;1851127;77;25474;-88
2022/04/13 07:07:59;;;;;;;13.80;8.83;;;;;;;21.13;49.37;99177.66;1850968;77;26510;-86
2022/04/13 07:10:28;;;;;;;11.30;8.30;;;;;;;21.18;49.34;99167.59;1851432;77;25703;-86
2022/04/13 07:12:55;;;;;;;11.88;8.73;;;;;;;21.24;49.34;99167.30;1851261;77;27498;-89
2022/04/13 07:15:21;;;;;;;12.23;8.05;;;;;;;21.29;49.32;99171.14;1851459;77;25429;-86
2022/04/13 07:17:48;;;;;;;10.70;8.03;;;;;;;21.33;49.22;99176.20;1851547;77;25641;-88
2022/04/13 07:20:14;;;;;;;12.23;8.50;;;;;;;21.36;49.30;99182.39;1851477;77;25829;-85
2022/04/13 07:22:51;;;;;;;12.47;8.48;;;;;;;21.42;49.20;99178.72;1851514;77;25646;-89
2022/04/13 07:25:19;;;;;;;13.20;9.25;;;;;;;21.46;49.21;99187.11;1840793;77;28285;-90
2022/04/13 07:27:47;;;;;;;11.65;8.20;;;;;;;21.49;49.17;99188.58;1840601;77;25663;-88
2022/04/13 07:30:15;;;;;;;12.40;8.78;;;;;;;21.53;49.15;99185.85;1840776;77;25734;-90
2022/04/13 07:32:45;;;;;;;13.18;8.70;;;;;;;21.58;49.10;99187.52;1840868;77;25697;-87
2022/04/13 07:35:12;;;;;;;11.18;8.05;;;;;;;21.61;49.09;99182.55;1840744;77;33551;-88
2022/04/13 07:37:39;;;;;;;10.25;8.03;;;;;;;21.63;49.08;99185.20;1840782;77;27306;-90
2022/04/13 07:40:11;;;;;;;11.97;7.92;;;;;;;21.67;49.00;99182.44;1840691;77;25704;-83
2022/04/13 07:42:38;;;;;;;11.18;7.83;;;;;;;21.72;48.87;99193.28;1840801;77;25422;-86
2022/04/13 07:45:07;;;;;;;10.95;7.53;;;;;;;21.76;48.84;99194.77;1840725;77;25722;-85
2022/04/13 07:47:33;;;;;;;9.70;7.33;;;;;;;21.78;48.83;99189.02;1840825;77;26328;-87
2022/04/13 07:50:00;;;;;;;10.32;7.90;;;;;;;21.80;48.78;99184.45;1840951;77;27332;-86
2022/04/13 07:52:27;;;;;;;10.20;7.60;;;;;;;21.84;48.70;99188.70;1840647;77;25656;-86
2022/04/13 07:54:53;;;;;;;11.25;7.75;;;;;;;21.87;48.62;99179.55;1840850;77;25438;-85
2022/04/13 07:57:20;;;;;;;11.00;7.47;;;;;;;21.88;48.56;99179.78;1840747;77;25656;-84
2022/04/13 07:59:46;;;;;;;11.20;7.90;;;;;;;21.90;48.50;99176.81;1840912;77;25640;-85
2022/04/13 08:02:12;;;;;;;10.58;8.10;;;;;;;21.93;48.44;99180.25;1840849;77;27303;-85
2022/04/13 08:04:39;;;;;;;10.43;8.08;;;;;;;21.95;48.39;99177.08;1841801;77;25589;-87
2022/04/13 08:07:05;;;;;;;10.48;7.72;;;;;;;21.98;48.32;99181.91;1841768;77;25592;-85
2022/04/13 08:09:33;;;;;;;12.35;7.50;;;;;;;22.00;48.28;99184.31;1841637;77;25632;-87
2022/04/13 08:11:59;;;;;;;9.53;7.12;;;;;;;22.04;48.21;99182.37;1841509;77;25158;-87
2022/04/13 08:14:26;;;;;;;10.18;7.58;;;;;;;22.06;48.19;99185.59;1841658;77;28199;-89
2022/04/13 08:16:52;;;;;;;9.65;7.33;;;;;;;22.09;48.11;99182.62;1841749;77;25763;-86
2022/04/13 08:19:18;;;;;;;11.08;7.40;;;;;;;22.12;48.07;99179.08;1841879;77;25687;-86
2022/04/13 08:21:45;;;;;;;11.10;7.67;;;;;;;22.14;48.04;99176.72;1842124;77;25668;-89
2022/04/13 08:24:11;;;;;;;9.28;7.17;;;;;;;22.15;48.02;99176.34;1846284;77;25671;-88
2022/04/13 08:26:38;;;;;;;12.37;7.40;;;;;;;22.18;47.98;99178.37;1852691;77;27277;-89
2022/04/13 08:29:04;;;;;;;10.18;7.35;;;;;;;22.19;47.93;99177.18;1852853;77;25635;-87
2022/04/13 08:31:31;;;;;;;9.45;7.05;;;;;;;22.23;47.90;99175.02;1852915;77;25595;-89
2022/04/13 08:33:57;;;;;;;10.18;7.60;;;;;;;22.24;47.85;99174.64;1852896;77;25829;-89
2022/04/13 08:36:24;;;;;;;9.65;7.22;;;;;;;22.25;47.82;99181.83;1852679;77;25647;-86
2022/04/13 08:38:50;;;;;;;12.37;7.08;;;;;;;22.27;47.76;99173.88;1852601;77;27331;-86
2022/04/13 08:41:31;;;;;;;10.53;7.40;;;;;;;22.29;47.74;99174.31;1852575;77;25784;-85
2022/04/13 08:44:05;;;;;;;9.90;7.22;;;;;;;22.31;47.73;99172.54;1852063;77;25454;-84
2022/04/13 08:46:34;;;;;;;10.58;7.05;;;;;;;22.32;47.67;99174.14;1851193;77;25682;-84
2022/04/13 08:49:04;;;;;;;10.58;6.90;;;;;;;22.32;47.72;99167.16;1851854;77;25586;-88
2022/04/13 08:51:33;;;;;;;10.30;6.95;;;;;;;22.33;47.70;99170.15;1851970;77;28407;-88
2022/04/13 08:54:19;;;;;;;11.38;7.15;;;;;;;22.33;47.73;99162.39;1825546;77;25626;-90
2022/04/13 08:56:53;;;;;;;12.90;7.03;;;;;;;22.34;47.70;99168.98;1825463;77;25682;-89
2022/04/13 08:59:37;;;;;;;15.23;7.12;;;;;;;22.35;47.61;99164.19;1851674;77;25739;-90
2022/04/13 09:02:29;;;;;;;12.95;7.00;;;;;;;22.35;47.59;99164.19;1849775;77;25582;-85
2022/04/13 09:05:01;;;;;;;13.70;7.65;;;;;;;22.38;47.39;99169.82;1851516;77;27422;-85
2022/04/13 09:07:31;;;;;;;10.58;6.55;;;;;;;22.41;47.25;99169.06;1851731;77;25699;-85
2022/04/13 09:10:02;;;;;;;9.50;6.97;;;;;;;22.43;47.17;99163.09;1851958;77;25597;-85
2022/04/13 09:12:30;;;;;;;11.00;6.70;;;;;;;22.43;47.14;99163.09;1851847;77;25922;-87
2022/04/13 09:15:02;;;;;;;12.55;7.08;;;;;;;22.45;47.11;99159.30;1851726;77;25634;-86
2022/04/13 09:17:29;;;;;;;9.40;6.75;;;;;;;22.43;47.06;99154.11;1851715;77;27361;-86
2022/04/13 09:19:58;;;;;;;14.78;6.90;;;;;;;22.44;47.05;99152.94;1851715;77;25642;-82
2022/04/13 09:22:26;;;;;;;12.58;7.08;;;;;;;22.46;46.96;99148.95;1851766;77;25619;-83
2022/04/13 09:24:53;;;;;;;12.63;6.80;;;;;;;22.45;46.96;99148.14;1851316;77;25777;-82
2022/04/13 09:27:20;;;;;;;10.50;7.37;;;;;;;22.43;46.79;99146.34;1851584;77;25641;-83
2022/04/13 09:29:47;;;;;;;11.12;7.00;;;;;;;22.40;46.46;99142.92;1851157;77;27366;-83
2022/04/13 09:32:15;;;;;;;11.25;7.03;;;;;;;22.40;46.29;99147.89;1851416;77;25643;-82
2022/04/13 09:34:41;;;;;;;8.83;6.40;;;;;;;22.40;45.76;99140.91;1851589;77;25394;-82
2022/04/13 09:37:08;;;;;;;13.00;6.78;;;;;;;22.37;45.65;99144.49;1850972;77;25714;-83
2022/04/13 09:39:35;;;;;;;14.07;6.90;;;;;;;22.37;45.08;99136.70;1851862;77;25724;-82
2022/04/13 09:42:02;;;;;;;10.30;6.17;;;;;;;22.35;44.89;99137.66;1851808;77;27942;-82
2022/04/13 09:44:30;;;;;;;10.50;6.28;;;;;;;22.34;44.54;99141.65;1851447;77;25360;-82
2022/04/13 09:47:12;;;;;;;10.93;6.22;;;;;;;22.31;44.04;99139.83;1851167;77;25671;-84
2022/04/13 09:49:53;;;;;;;11.95;6.15;;;;;;;22.29;43.58;99138.03;1850868;77;25787;-83
2022/04/13 09:52:37;;;;;;;12.47;6.50;;;;;;;22.27;43.25;99133.41;1847966;77;25692;-83
2022/04/13 09:55:09;;;;;;;10.00;6.22;;;;;;;22.26;42.96;99136.00;1788954;77;28000;-83
2022/04/13 09:57:36;;;;;;;9.35;5.95;;;;;;;22.22;42.66;99136.53;1858578;77;25827;-83
2022/04/13 10:00:06;;;;;;;9.10;6.00;;;;;;;22.19;42.45;99129.73;1851473;77;25678;-82
2022/04/13 10:02:38;;;;;;;9.38;6.35;;;;;;;22.15;42.14;99126.10;1858038;77;25712;-84
2022/04/13 10:05:08;;;;;;;9.50;6.40;;;;;;;22.13;41.79;99123.49;1862762;76;25553;-84
2022/04/13 10:07:36;;;;;;;9.58;6.17;;;;;;;22.09;41.42;99126.81;1851622;77;27346;-87
2022/04/13 10:10:04;;;;;;;8.78;5.90;;;;;;;22.06;41.13;99121.41;1851464;77;25415;-82
2022/04/13 10:12:48;;;;;;;8.53;6.17;;;;;;;22.05;40.93;99130.36;1851502;77;25655;-87
2022/04/13 10:15:15;;;;;;;8.05;5.65;;;;;;;22.04;40.74;99125.98;1851401;77;25836;-87
2022/04/13 10:17:42;;;;;;;10.40;6.12;;;;;;;22.01;40.69;99125.34;1851659;77;25628;-86
2022/04/13 10:20:09;;;;;;;9.53;6.15;;;;;;;22.02;40.48;99128.94;1851546;77;27632;-87
2022/04/13 10:23:01;;;;;;;10.70;6.12;;;;;;;21.98;40.24;99135.86;1851537;77;25402;-83
2022/04/13 10:25:28;;;;;;;9.38;5.78;;;;;;;21.97;40.04;99125.08;1839007;77;25679;-82
2022/04/13 10:27:58;;;;;;;11.85;6.00;;;;;;;21.95;39.98;99122.67;1852006;77;25680;-82
2022/04/13 10:30:28;;;;;;;10.55;6.20;;;;;;;21.95;39.88;99122.67;1851458;77;25630;-83
2022/04/13 10:33:08;;;;;;;8.88;6.05;;;;;;;21.96;39.83;99123.48;1848536;77;28225;-82
2022/04/13 10:35:41;;;;;;;10.28;6.30;;;;;;;21.92;39.80;99118.66;1851811;77;25454;-82
2022/04/13 10:38:09;;;;;;;11.22;6.22;;;;;;;21.91;39.56;99119.83;1851513;77;25618;-82
2022/04/13 10:40:42;;;;;;;9.05;5.95;;;;;;;21.88;39.48;99126.78;1851720;77;26555;-82
2022/04/13 10:43:11;;;;;;;10.08;5.85;;;;;;;21.86;39.42;99121.58;1851878;77;25697;-82
2022/04/13 10:45:41;;;;;;;12.25;5.30;;;;;;;21.86;39.05;99111.00;1851894;77;28090;-83
2022/04/13 10:48:10;;;;;;;11.85;6.00;;;;;;;21.83;38.92;99115.36;1851693;77;25891;-82
2022/04/13 10:51:09;;;;;;;9.80;5.53;;;;;;;21.80;38.77;99114.72;1851172;77;25563;-83
2022/04/13 10:53:55;;;;;;;11.33;5.45;;;;;;;21.78;38.65;99113.70;1851990;77;25857;-83
2022/04/13 10:56:26;;;;;;;8.73;5.28;;;;;;;21.76;38.57;99113.27;1843456;77;25422;-84
2022/04/13 10:59:32;;;;;;;10.60;5.40;;;;;;;21.74;38.23;99117.59;1850407;77;27464;-86
2022/04/13 11:02:07;;;;;;;10.13;5.45;;;;;;;21.67;37.86;99114.11;1754621;81;25541;-84
2022/04/13 11:04:34;;;;;;;10.82;5.37;;;;;;;21.63;37.68;99108.51;1753411;81;25720;-82
2022/04/13 11:07:05;;;;;;;9.58;5.30;;;;;;;21.59;37.91;99106.85;1755072;81;25823;-84
2022/04/13 11:09:40;;;;;;;13.45;5.33;;;;;;;21.58;38.04;99106.65;1755010;81;25693;-85
2022/04/13 11:12:09;;;;;;;11.28;5.40;;;;;;;21.58;38.15;99103.25;1755095;81;28020;-86
2022/04/13 11:14:51;;;;;;;11.80;5.10;;;;;;;21.59;38.02;99100.70;1754907;81;25500;-86
2022/04/13 11:17:23;;;;;;;10.35;5.33;;;;;;;21.59;38.01;99103.48;1755006;81;25537;-86
2022/04/13 11:19:49;;;;;;;10.70;4.83;;;;;;;21.59;37.87;99102.67;1755094;81;25698;-85
2022/04/13 11:22:19;;;;;;;10.50;5.30;;;;;;;21.58;37.94;99099.67;1755241;81;25463;-87
2022/04/13 11:24:54;;;;;;;9.28;4.72;;;;;;;21.56;37.58;99095.88;1754588;81;27435;-86
2022/04/13 11:27:22;;;;;;;8.65;4.78;;;;;;;21.55;37.66;99110.39;1754552;81;25891;-86
2022/04/13 11:30:04;;;;;;;9.48;5.20;;;;;;;21.53;37.55;99103.59;1754706;81;25570;-86